Time;durP1;ratioP1;P1;durP2;ratioP2;P2;SDS_P1;SDS_P2;PMS_P1;PMS_P2;Temp;Humidity;BMP_temperature;BMP_pressure;BME280_temperature;BME280_humidity;BME280_pressure;Samples;Min_cycle;Max_cycle;Signal;HPM_P1;HPM_P2
2021/07/14 00:00:54;;;;;;;;;;;;;;;24.39;46.06;100949.75;5049292;28;993;-65
2021/07/14 00:03:39;;;;;;;;;;;;;;;24.36;46.31;100942.84;5049148;28;1272;-66
2021/07/14 00:06:25;;;;;;;;;;;;;;;24.34;46.12;100934.16;5049248;28;1053;-65
2021/07/14 00:09:10;;;;;;;;;;;;;;;24.33;46.22;100943.09;5049112;28;1359;-66
2021/07/14 00:12:01;;;;;;;;;;;;;;;24.27;46.53;100946.22;5049141;28;941;-65
2021/07/14 00:15:01;;;;;;;;;;;;;;;24.30;46.18;100951.31;5049007;28;1228;-65
2021/07/14 00:23:41;;;;;;;;;;;;;;;24.40;46.63;100954.13;5049119;28;1365;-65
2021/07/14 00:26:27;;;;;;;;;;;;;;;24.35;46.20;100950.94;5048798;28;1143;-63
2021/07/14 00:29:12;;;;;;;;;;;;;;;24.34;46.41;100947.47;5048077;28;1381;-63
2021/07/14 00:31:57;;;;;;;;;;;;;;;24.31;46.39;100950.34;5048962;28;933;-64
2021/07/14 00:34:42;;;;;;;;;;;;;;;24.25;46.51;100950.81;5048987;28;1359;-64
2021/07/14 00:37:28;;;;;;;;;;;;;;;24.25;46.47;100956.16;5048997;28;1039;-66
2021/07/14 00:40:13;;;;;;;;;;;;;;;24.28;46.53;100950.59;5048549;28;1926;-65
2021/07/14 00:43:00;;;;;;;;;;;;;;;24.26;46.29;100949.00;5048804;28;1260;-64
2021/07/14 00:45:45;;;;;;;;;;;;;;;24.20;45.47;100947.66;5048834;28;1057;-64
2021/07/14 00:48:31;;;;;;;;;;;;;;;24.15;43.79;100951.63;5048699;28;1319;-64
2021/07/14 00:51:17;;;;;;;;;;;;;;;24.23;42.16;100955.41;5048725;28;1374;-64
2021/07/14 00:54:02;;;;;;;;;;;;;;;24.19;42.26;100951.28;5047944;28;1260;-64
2021/07/14 00:56:48;;;;;;;;;;;;;;;24.03;40.56;100948.06;5048274;28;1127;-63
2021/07/14 00:59:33;;;;;;;;;;;;;;;24.16;39.14;100946.22;5048702;28;1934;-64
2021/07/14 01:02:18;;;;;;;;;;;;;;;24.04;38.43;100952.44;5048441;28;950;-63
2021/07/14 01:05:07;;;;;;;;;;;;;;;24.09;38.26;100955.59;5064706;28;1303;-64
2021/07/14 01:07:52;;;;;;;;;;;;;;;24.10;38.15;100961.75;5060441;28;1299;-64
2021/07/14 01:10:42;;;;;;;;;;;;;;;24.02;37.45;100962.31;5059792;28;924;-64
2021/07/14 01:13:38;;;;;;;;;;;;;;;23.99;37.67;100962.56;5048494;28;1267;-64
2021/07/14 01:16:25;;;;;;;;;;;;;;;24.02;37.52;100961.47;5046640;28;1066;-64
2021/07/14 01:19:29;;;;;;;;;;;;;;;23.99;37.55;100959.91;5047829;28;1985;-67
2021/07/14 01:22:25;;;;;;;;;;;;;;;24.05;39.61;100959.44;5048272;28;1123;-66
2021/07/14 01:25:24;;;;;;;;;;;;;;;23.91;37.57;100956.97;5047873;28;1279;-67
2021/07/14 01:28:10;;;;;;;;;;;;;;;23.90;37.58;100955.28;5047456;28;1275;-67
2021/07/14 01:30:56;;;;;;;;;;;;;;;23.83;38.04;100954.88;5051878;28;950;-67
2021/07/14 01:33:44;;;;;;;;;;;;;;;23.82;38.13;100947.88;5051725;28;1244;-65
2021/07/14 01:36:31;;;;;;;;;;;;;;;23.83;38.95;100948.72;5051802;28;918;-64
2021/07/14 01:39:18;;;;;;;;;;;;;;;23.81;39.66;100947.97;5051631;28;1906;-65
2021/07/14 01:42:04;;;;;;;;;;;;;;;23.67;40.67;100953.50;5051833;28;1139;-65
2021/07/14 01:44:52;;;;;;;;;;;;;;;23.64;41.63;100953.72;5051694;28;1264;-65
2021/07/14 01:47:39;;;;;;;;;;;;;;;23.75;42.01;100951.09;5051861;28;1099;-64
2021/07/14 01:50:27;;;;;;;;;;;;;;;23.74;42.50;100957.41;5051342;28;726;-64
2021/07/14 01:53:12;;;;;;;;;;;;;;;23.83;42.77;100962.84;5051617;28;1615;-64
2021/07/14 01:55:58;;;;;;;;;;;;;;;23.74;43.22;100965.38;5051296;28;941;-64
2021/07/14 01:58:46;;;;;;;;;;;;;;;23.74;43.41;100966.19;5051637;28;1373;-63
2021/07/14 02:01:35;;;;;;;;;;;;;;;23.75;43.66;100972.38;5053694;28;1165;-63
2021/07/14 02:04:30;;;;;;;;;;;;;;;23.70;43.98;100962.09;5051636;28;1320;-64
2021/07/14 02:07:18;;;;;;;;;;;;;;;23.59;44.57;100962.03;5051276;28;1024;-63
2021/07/14 02:10:03;;;;;;;;;;;;;;;23.50;45.48;100956.56;5050300;28;1286;-64
2021/07/14 02:12:50;;;;;;;;;;;;;;;23.47;45.33;100973.56;5051464;28;1216;-63
2021/07/14 02:15:36;;;;;;;;;;;;;;;23.63;45.44;100971.47;5050973;28;633;-65
2021/07/14 02:18:24;;;;;;;;;;;;;;;23.67;45.45;100969.44;5050868;28;1367;-64
2021/07/14 02:21:10;;;;;;;;;;;;;;;23.61;45.39;100961.94;5051127;28;1902;-64
2021/07/14 02:23:55;;;;;;;;;;;;;;;23.68;45.11;100957.84;5050936;28;1280;-65
2021/07/14 02:26:42;;;;;;;;;;;;;;;23.62;45.45;100963.63;5051198;28;1084;-64
2021/07/14 02:29:27;;;;;;;;;;;;;;;23.50;45.66;100967.19;5050861;28;1284;-65
2021/07/14 02:32:14;;;;;;;;;;;;;;;23.58;45.60;100964.81;5050804;28;1071;-65
2021/07/14 02:34:59;;;;;;;;;;;;;;;23.60;45.71;100962.88;5050726;28;1394;-65
2021/07/14 02:38:03;;;;;;;;;;;;;;;23.53;45.06;100966.97;5051569;28;1071;-65
2021/07/14 02:41:03;;;;;;;;;;;;;;;23.51;44.05;100961.75;5050595;28;1959;-65
2021/07/14 02:43:51;;;;;;;;;;;;;;;23.42;43.37;100964.22;5051852;28;1313;-65
2021/07/14 02:46:38;;;;;;;;;;;;;;;23.40;42.88;100956.38;5062387;28;1118;-65
2021/07/14 02:49:27;;;;;;;;;;;;;;;23.32;42.17;100956.91;5057537;28;1268;-65
2021/07/14 02:52:13;;;;;;;;;;;;;;;23.33;42.50;100958.59;5051033;28;1650;-66
2021/07/14 02:55:00;;;;;;;;;;;;;;;23.42;41.74;100954.44;5050397;28;1268;-64
2021/07/14 02:57:48;;;;;;;;;;;;;;;23.41;41.46;100957.22;5050823;28;1130;-63
2021/07/14 03:00:35;;;;;;;;;;;;;;;23.31;41.36;100957.88;5048790;28;1906;-63
2021/07/14 03:03:22;;;;;;;;;;;;;;;23.47;41.58;100956.78;5050136;28;1367;-64
2021/07/14 03:06:07;;;;;;;;;;;;;;;23.41;40.39;100955.41;5050135;28;1115;-65
2021/07/14 03:09:02;;;;;;;;;;;;;;;23.42;40.34;100948.28;5048861;28;1287;-65
2021/07/14 03:11:48;;;;;;;;;;;;;;;23.46;40.33;100952.41;5050108;28;1079;-64
2021/07/14 03:14:35;;;;;;;;;;;;;;;23.39;40.11;100944.03;5049466;28;1359;-64
2021/07/14 03:17:21;;;;;;;;;;;;;;;23.35;40.42;100955.81;5050222;28;1053;-63
2021/07/14 03:20:09;;;;;;;;;;;;;;;23.32;39.96;100954.22;5049993;28;1906;-63
2021/07/14 03:22:54;;;;;;;;;;;;;;;23.25;39.70;100944.19;5050052;28;1189;-63
2021/07/14 03:25:41;;;;;;;;;;;;;;;23.33;39.41;100942.66;5049868;28;964;-64
2021/07/14 03:28:30;;;;;;;;;;;;;;;23.21;39.49;100934.72;5049710;28;1272;-65
2021/07/14 03:31:16;;;;;;;;;;;;;;;23.36;38.93;100942.44;5049824;28;907;-65
2021/07/14 03:34:01;;;;;;;;;;;;;;;23.25;39.34;100944.19;5049547;28;1362;-64
2021/07/14 03:36:48;;;;;;;;;;;;;;;23.28;39.08;100942.16;5049861;28;1038;-64
2021/07/14 03:39:36;;;;;;;;;;;;;;;23.20;38.99;100949.81;5049722;28;1922;-64
2021/07/14 03:42:21;;;;;;;;;;;;;;;23.15;39.04;100954.63;5050239;28;1119;-64
2021/07/14 03:45:07;;;;;;;;;;;;;;;23.11;38.92;100960.25;5048379;28;1395;-64
2021/07/14 03:47:53;;;;;;;;;;;;;;;23.22;38.79;100955.84;5049642;28;1341;-65
2021/07/14 03:50:38;;;;;;;;;;;;;;;23.15;38.79;100965.25;5049176;28;950;-64
2021/07/14 03:53:24;;;;;;;;;;;;;;;23.15;38.60;100959.94;5049036;28;1327;-64
2021/07/14 03:56:09;;;;;;;;;;;;;;;23.17;38.53;100962.47;5049451;28;1109;-64
2021/07/14 03:58:58;;;;;;;;;;;;;;;22.97;38.51;100963.91;5048917;28;1237;-66
2021/07/14 04:01:44;;;;;;;;;;;;;;;23.09;38.52;100965.69;5047853;28;1064;-65
2021/07/14 04:04:30;;;;;;;;;;;;;;;23.14;38.39;100966.19;5049167;28;1279;-65
2021/07/14 04:07:16;;;;;;;;;;;;;;;23.05;38.70;100969.50;5049651;28;1069;-65
2021/07/14 04:10:02;;;;;;;;;;;;;;;23.05;38.38;100972.16;5048974;28;1462;-63
2021/07/14 04:12:49;;;;;;;;;;;;;;;23.13;38.34;100974.28;5049168;28;1050;-63
2021/07/14 04:15:35;;;;;;;;;;;;;;;22.93;38.93;100981.00;5048672;28;648;-63
2021/07/14 04:18:20;;;;;;;;;;;;;;;23.13;38.70;100980.44;5049077;28;1300;-64
2021/07/14 04:21:06;;;;;;;;;;;;;;;23.00;38.68;100994.72;5048596;28;1966;-64
2021/07/14 04:23:51;;;;;;;;;;;;;;;23.11;38.88;100985.00;5048568;28;1359;-63
2021/07/14 04:26:36;;;;;;;;;;;;;;;23.11;38.71;100982.34;5048398;28;1599;-63
2021/07/14 04:29:22;;;;;;;;;;;;;;;23.10;38.58;100985.97;5047620;28;1371;-63
2021/07/14 04:32:07;;;;;;;;;;;;;;;22.95;39.00;100984.41;5048317;28;1145;-64
2021/07/14 04:34:52;;;;;;;;;;;;;;;23.05;38.99;100982.78;5048308;28;1484;-64
2021/07/14 04:37:38;;;;;;;;;;;;;;;23.10;38.66;100980.66;5048739;28;1057;-64
2021/07/14 04:40:23;;;;;;;;;;;;;;;23.04;38.81;100986.41;5048658;28;1963;-64
2021/07/14 04:43:10;;;;;;;;;;;;;;;23.04;38.87;100991.72;5048194;28;1374;-64
2021/07/14 04:45:55;;;;;;;;;;;;;;;22.92;38.99;100997.91;5048106;28;1031;-66
2021/07/14 04:48:41;;;;;;;;;;;;;;;22.94;39.31;101005.78;5048334;28;1378;-64
2021/07/14 04:51:26;;;;;;;;;;;;;;;22.78;39.33;100998.88;5047937;28;1434;-65
2021/07/14 04:54:11;;;;;;;;;;;;;;;22.83;39.32;101010.03;5048362;28;1319;-64
2021/07/14 04:56:57;;;;;;;;;;;;;;;22.79;39.49;101007.69;5048316;28;959;-65
2021/07/14 04:59:42;;;;;;;;;;;;;;;22.82;39.32;101018.13;5047899;28;1910;-65
2021/07/14 05:02:27;;;;;;;;;;;;;;;22.85;39.31;101023.22;5047288;28;1064;-65
2021/07/14 05:05:13;;;;;;;;;;;;;;;22.76;39.41;101032.66;5048086;28;1276;-65
2021/07/14 05:07:58;;;;;;;;;;;;;;;22.75;39.58;101030.09;5048508;28;1333;-64
2021/07/14 05:10:44;;;;;;;;;;;;;;;22.68;39.74;101027.03;5047955;28;1052;-65
2021/07/14 05:13:29;;;;;;;;;;;;;;;22.86;39.36;101035.50;5048228;28;1292;-65
2021/07/14 05:16:14;;;;;;;;;;;;;;;22.71;39.47;101018.00;5048347;28;998;-65
2021/07/14 05:19:02;;;;;;;;;;;;;;;22.74;39.45;101021.28;5048163;28;1240;-66
2021/07/14 05:21:47;;;;;;;;;;;;;;;22.79;39.54;101029.81;5047755;28;1964;-66
2021/07/14 05:24:33;;;;;;;;;;;;;;;22.72;39.74;101031.19;5047912;28;1413;-66
2021/07/14 05:27:19;;;;;;;;;;;;;;;22.66;39.72;101034.25;5048210;28;1088;-66
2021/07/14 05:30:05;;;;;;;;;;;;;;;22.66;40.03;101038.72;5047732;28;1283;-66
2021/07/14 05:32:50;;;;;;;;;;;;;;;22.67;39.64;101043.06;5047571;28;1258;-68
2021/07/14 05:35:36;;;;;;;;;;;;;;;22.65;40.06;101042.31;5047497;28;624;-65
2021/07/14 05:38:21;;;;;;;;;;;;;;;22.73;39.71;101042.66;5047071;28;1288;-65
2021/07/14 05:41:07;;;;;;;;;;;;;;;22.90;39.83;101036.16;5043472;28;1902;-65
2021/07/14 05:43:52;;;;;;;;;;;;;;;22.96;39.87;101039.25;5045276;28;1328;-65
2021/07/14 05:46:37;;;;;;;;;;;;;;;23.06;40.25;101042.97;5044879;28;1103;-66
2021/07/14 05:49:23;;;;;;;;;;;;;;;23.11;40.34;101038.16;5043880;28;1312;-64
2021/07/14 05:52:08;;;;;;;;;;;;;;;23.15;40.34;101042.31;5044674;28;1589;-65
2021/07/14 05:54:53;;;;;;;;;;;;;;;23.21;40.65;101051.66;5045300;28;1424;-64
2021/07/14 05:57:39;;;;;;;;;;;;;;;23.24;40.95;101054.94;5043234;28;1111;-64
2021/07/14 06:00:26;;;;;;;;;;;;;;;23.26;40.98;101058.34;5044047;28;1902;-66
2021/07/14 06:03:11;;;;;;;;;;;;;;;23.32;41.13;101057.03;5045523;28;1395;-66
2021/07/14 06:05:56;;;;;;;;;;;;;;;23.33;41.16;101064.06;5045959;28;1035;-65
2021/07/14 06:08:43;;;;;;;;;;;;;;;23.35;41.13;101062.13;5043886;28;1408;-65
2021/07/14 06:11:28;;;;;;;;;;;;;;;23.36;41.14;101067.38;5044965;28;1111;-66
2021/07/14 06:14:13;;;;;;;;;;;;;;;23.39;41.29;101075.16;5046415;28;1320;-65
2021/07/14 06:16:58;;;;;;;;;;;;;;;23.41;41.40;101075.03;5049878;28;1297;-66
2021/07/14 06:19:44;;;;;;;;;;;;;;;23.44;41.39;101071.31;5047701;28;1402;-67
2021/07/14 06:22:29;;;;;;;;;;;;;;;23.45;41.38;101080.97;5048318;28;1117;-67
2021/07/14 06:25:15;;;;;;;;;;;;;;;23.47;41.51;101079.09;5049108;28;1107;-66
2021/07/14 06:28:02;;;;;;;;;;;;;;;23.48;41.55;101084.28;5046864;28;1236;-68
2021/07/14 06:30:48;;;;;;;;;;;;;;;23.51;41.71;101081.41;5047899;28;1197;-65
2021/07/14 06:33:38;;;;;;;;;;;;;;;23.52;41.78;101077.78;5049276;28;1395;-66
2021/07/14 06:36:23;;;;;;;;;;;;;;;23.54;41.88;101078.50;5049214;28;1163;-65
2021/07/14 06:39:09;;;;;;;;;;;;;;;23.57;41.97;101090.72;5047581;28;1415;-65
2021/07/14 06:41:55;;;;;;;;;;;;;;;23.57;42.07;101096.91;5049134;28;1969;-66
2021/07/14 06:44:41;;;;;;;;;;;;;;;23.60;42.02;101090.53;5046612;28;1302;-67
2021/07/14 06:47:26;;;;;;;;;;;;;;;23.61;42.02;101108.19;5047350;28;1143;-67
2021/07/14 06:50:12;;;;;;;;;;;;;;;23.66;42.18;101106.88;5048327;28;1292;-66
2021/07/14 06:53:01;;;;;;;;;;;;;;;23.67;42.36;101102.41;5049460;28;1354;-66
2021/07/14 06:55:46;;;;;;;;;;;;;;;23.70;42.37;101097.75;5046156;28;1313;-65
2021/07/14 06:58:36;;;;;;;;;;;;;;;23.71;42.43;101098.59;5046853;28;1347;-65
2021/07/14 07:01:21;;;;;;;;;;;;;;;23.71;42.57;101106.56;5046819;28;1938;-63
2021/07/14 07:04:06;;;;;;;;;;;;;;;23.75;42.56;101110.69;5047220;28;1267;-65
2021/07/14 07:06:51;;;;;;;;;;;;;;;23.76;42.43;101112.41;5048282;28;1122;-67
2021/07/14 07:09:37;;;;;;;;;;;;;;;23.78;43.05;101116.63;5048653;28;1338;-63
2021/07/14 07:12:23;;;;;;;;;;;;;;;23.75;41.47;101116.00;5046549;28;1075;-64
2021/07/14 07:15:08;;;;;;;;;;;;;;;23.67;41.43;101118.38;5045039;28;1257;-63
2021/07/14 07:17:54;;;;;;;;;;;;;;;23.69;41.91;101121.78;5045471;28;1286;-63
2021/07/14 07:20:41;;;;;;;;;;;;;;;23.72;40.63;101119.75;5047905;28;1929;-69
2021/07/14 07:23:46;;;;;;;;;;;;;;;23.72;40.66;101110.91;5046671;28;1254;-66
2021/07/14 07:26:31;;;;;;;;;;;;;;;23.69;41.54;101116.44;5045580;28;1129;-67
2021/07/14 07:29:37;;;;;;;;;;;;;;;23.72;40.82;101110.91;5047995;28;1418;-66
2021/07/14 07:32:23;;;;;;;;;;;;;;;23.74;40.79;101115.16;5046024;28;1422;-66
2021/07/14 07:35:08;;;;;;;;;;;;;;;23.77;41.07;101127.41;5045159;28;1749;-63
2021/07/14 07:37:54;;;;;;;;;;;;;;;23.77;41.47;101122.09;5045356;28;1378;-66
2021/07/14 07:40:39;;;;;;;;;;;;;;;23.76;41.34;101123.03;5047311;28;1961;-65
2021/07/14 07:43:27;;;;;;;;;;;;;;;23.76;41.23;101117.72;5045235;28;1296;-64
2021/07/14 07:46:12;;;;;;;;;;;;;;;23.79;41.52;101122.81;5044876;28;1327;-64
2021/07/14 07:48:57;;;;;;;;;;;;;;;23.79;41.59;101120.16;5046024;28;1312;-63
2021/07/14 07:51:43;;;;;;;;;;;;;;;23.79;41.68;101122.81;5044008;28;1599;-65
2021/07/14 07:54:29;;;;;;;;;;;;;;;23.79;42.03;101122.81;5044719;28;1317;-62
2021/07/14 07:57:14;;;;;;;;;;;;;;;23.82;42.34;101123.44;5042059;28;1114;-63
2021/07/14 07:59:59;;;;;;;;;;;;;;;23.83;42.34;101138.44;5045910;28;1219;-63
2021/07/14 08:02:45;;;;;;;;;;;;;;;23.82;42.25;101135.91;5041771;28;1185;-63
2021/07/14 08:05:30;;;;;;;;;;;;;;;23.82;42.70;101122.59;5044753;28;1126;-62
2021/07/14 08:08:16;;;;;;;;;;;;;;;23.84;43.24;101131.31;5045504;28;1295;-61
2021/07/14 08:11:02;;;;;;;;;;;;;;;23.86;43.25;101130.22;5045749;28;1115;-64
2021/07/14 08:13:47;;;;;;;;;;;;;;;23.85;43.13;101128.56;5043756;28;1323;-63
2021/07/14 08:16:33;;;;;;;;;;;;;;;23.85;43.39;101128.56;5045012;28;1075;-64
2021/07/14 08:19:18;;;;;;;;;;;;;;;23.85;43.66;101125.88;5043420;28;1296;-64
2021/07/14 08:22:04;;;;;;;;;;;;;;;23.85;44.09;101133.00;5042547;28;1906;-65
2021/07/14 08:24:49;;;;;;;;;;;;;;;23.87;44.43;101136.41;5044411;28;1323;-64
2021/07/14 08:27:35;;;;;;;;;;;;;;;23.90;44.30;101136.19;5044210;28;996;-64
2021/07/14 08:30:21;;;;;;;;;;;;;;;23.92;44.47;101143.09;5045208;28;1060;-66
2021/07/14 08:33:06;;;;;;;;;;;;;;;23.91;44.67;101137.88;5043739;28;1403;-67
2021/07/14 08:35:51;;;;;;;;;;;;;;;23.93;44.89;101135.97;5044563;28;983;-66
2021/07/14 08:38:37;;;;;;;;;;;;;;;23.93;44.90;101134.16;5044942;28;1225;-67
2021/07/14 08:41:23;;;;;;;;;;;;;;;23.95;44.95;101123.41;5044529;28;1902;-67
2021/07/14 08:44:14;;;;;;;;;;;;;;;23.95;44.84;101132.22;5045881;28;1284;-67
2021/07/14 08:47:00;;;;;;;;;;;;;;;23.98;44.66;101135.63;5047206;28;1348;-68
2021/07/14 08:49:49;;;;;;;;;;;;;;;23.97;44.64;101133.94;5045485;28;1402;-66
2021/07/14 08:52:34;;;;;;;;;;;;;;;23.99;44.88;101140.84;5044838;28;1480;-67
2021/07/14 08:55:20;;;;;;;;;;;;;;;24.03;44.66;101142.31;5046965;28;1221;-68
2021/07/14 08:58:06;;;;;;;;;;;;;;;24.03;44.27;101142.31;5044681;28;1415;-69
2021/07/14 09:00:54;;;;;;;;;;;;;;;24.07;44.40;101149.13;5045299;28;1941;-69
2021/07/14 09:03:40;;;;;;;;;;;;;;;24.08;44.33;101144.63;5053104;28;1326;-69
2021/07/14 09:06:26;;;;;;;;;;;;;;;24.08;44.94;101145.47;5044927;28;1095;-72
2021/07/14 09:09:11;;;;;;;;;;;;;;;24.07;44.72;101141.16;5044585;28;1328;-71
2021/07/14 09:11:58;;;;;;;;;;;;;;;24.06;43.90;101143.91;5045258;28;1127;-70
2021/07/14 09:14:44;;;;;;;;;;;;;;;24.04;43.99;101144.03;5043476;28;1312;-71
2021/07/14 09:17:29;;;;;;;;;;;;;;;24.02;44.01;101145.94;5044876;28;1142;-71
2021/07/14 09:20:14;;;;;;;;;;;;;;;24.07;44.00;101141.16;5044318;28;1134;-71
2021/07/14 09:23:10;;;;;;;;;;;;;;;24.07;43.77;101141.16;5045987;28;1970;-71
2021/07/14 09:26:00;;;;;;;;;;;;;;;24.09;43.60;101143.69;5043522;28;1039;-72
2021/07/14 09:28:45;;;;;;;;;;;;;;;24.11;43.76;101153.28;5046262;28;1449;-71
2021/07/14 09:31:31;;;;;;;;;;;;;;;24.12;43.89;101151.47;5044717;28;1110;-71
2021/07/14 09:34:24;;;;;;;;;;;;;;;24.11;43.77;101150.63;5045459;28;1360;-72
2021/07/14 09:37:09;;;;;;;;;;;;;;;24.13;44.41;101150.53;5044489;28;1311;-73
2021/07/14 09:39:55;;;;;;;;;;;;;;;24.15;44.52;101154.75;5045281;28;1398;-72
2021/07/14 09:42:48;;;;;;;;;;;;;;;24.17;45.27;101163.47;5046101;28;1902;-72
2021/07/14 09:45:39;;;;;;;;;;;;;;;24.19;45.24;101158.91;5045046;28;1138;-72
2021/07/14 09:48:29;;;;;;;;;;;;;;;24.22;45.35;101158.69;5043361;28;1307;-73
2021/07/14 09:51:17;;;;;;;;;;;;;;;24.24;45.52;101167.41;5048690;28;1753;-72
2021/07/14 09:54:06;;;;;;;;;;;;;;;24.26;45.77;101159.28;5048619;28;1421;-72
2021/07/14 09:56:52;;;;;;;;;;;;;;;24.23;46.32;101152.38;5048290;28;1107;-72
2021/07/14 09:59:38;;;;;;;;;;;;;;;24.22;46.67;101152.50;5049301;28;1236;-72
2021/07/14 10:02:23;;;;;;;;;;;;;;;24.23;46.40;101151.53;5057000;28;1979;-72
2021/07/14 10:05:12;;;;;;;;;;;;;;;24.26;46.23;101152.16;5047630;28;1375;-72
2021/07/14 10:08:36;;;;;;;;;;;;;;;24.32;47.19;101154.34;5048643;28;1294;-72
2021/07/14 10:11:22;;;;;;;;;;;;;;;24.39;47.70;101150.28;5023475;28;1073;-74
2021/07/14 10:14:09;;;;;;;;;;;;;;;24.36;46.94;101155.84;5027161;28;1395;-73
2021/07/14 10:16:54;;;;;;;;;;;;;;;24.38;46.62;101159.22;5045670;28;1310;-72
2021/07/14 10:19:39;;;;;;;;;;;;;;;24.39;46.81;101157.44;5048825;28;1368;-73
2021/07/14 10:22:25;;;;;;;;;;;;;;;24.40;47.83;101153.81;5049533;28;1977;-72
2021/07/14 10:25:10;;;;;;;;;;;;;;;24.41;47.69;101144.84;5047537;28;1372;-71
2021/07/14 10:27:57;;;;;;;;;;;;;;;24.43;47.60;101161.56;5055619;28;1352;-70
2021/07/14 10:30:43;;;;;;;;;;;;;;;24.44;47.16;101152.59;5049032;28;1160;-73
2021/07/14 10:33:32;;;;;;;;;;;;;;;24.44;47.37;101153.44;5047136;28;1408;-73
2021/07/14 10:36:20;;;;;;;;;;;;;;;24.45;47.93;101152.50;5055691;28;1261;-73
2021/07/14 10:39:14;;;;;;;;;;;;;;;24.52;47.54;101157.38;5047308;28;1430;-73
2021/07/14 10:42:00;;;;;;;;;;;;;;;24.54;48.18;101153.63;5047935;28;1902;-72
2021/07/14 10:44:45;;;;;;;;;;;;;;;24.59;48.61;101153.28;5049325;28;1304;-73
2021/07/14 10:47:31;;;;;;;;;;;;;;;24.60;48.37;101158.47;5045083;28;1073;-70
2021/07/14 10:50:19;;;;;;;;;;;;;;;24.62;48.38;101151.25;5046682;28;1161;-69
2021/07/14 10:53:04;;;;;;;;;;;;;;;24.62;48.44;101153.06;5048114;28;1662;-67
2021/07/14 10:55:53;;;;;;;;;;;;;;;24.62;47.68;101150.41;5049670;28;1249;-69
2021/07/14 10:58:39;;;;;;;;;;;;;;;24.61;48.32;101149.53;5047639;28;1412;-70
2021/07/14 11:01:39;;;;;;;;;;;;;;;24.63;47.97;101152.06;5047219;28;1906;-69
2021/07/14 11:04:25;;;;;;;;;;;;;;;24.65;48.49;101155.50;5045702;28;1322;-68
2021/07/14 11:07:10;;;;;;;;;;;;;;;24.66;49.11;101147.38;5049093;28;1309;-66
2021/07/14 11:09:55;;;;;;;;;;;;;;;24.63;48.69;101144.94;5046822;28;1287;-66
2021/07/14 11:12:41;;;;;;;;;;;;;;;24.64;48.64;101149.31;5048096;28;1158;-68
2021/07/14 11:15:36;;;;;;;;;;;;;;;24.65;49.09;101152.81;5056013;28;1098;-66
2021/07/14 11:18:31;;;;;;;;;;;;;;;24.70;48.96;101155.97;5053483;28;1327;-68
2021/07/14 11:21:35;;;;;;;;;;;;;;;24.69;49.05;101155.13;5047271;28;1913;-70
2021/07/14 11:24:36;;;;;;;;;;;;;;;24.71;49.34;101153.22;5047064;28;1379;-68
2021/07/14 11:27:27;;;;;;;;;;;;;;;24.68;49.27;101144.59;5047426;28;1076;-68
2021/07/14 11:30:13;;;;;;;;;;;;;;;24.71;49.45;101153.22;5048401;28;1422;-68
2021/07/14 11:33:00;;;;;;;;;;;;;;;24.71;49.57;101155.88;5046913;28;1236;-68
2021/07/14 11:35:53;;;;;;;;;;;;;;;24.72;49.56;101160.22;5047596;28;1033;-66
2021/07/14 11:38:43;;;;;;;;;;;;;;;24.77;50.01;101154.56;5051348;28;1408;-67
2021/07/14 11:41:48;;;;;;;;;;;;;;;24.78;49.59;101153.56;5047812;28;1898;-67
2021/07/14 11:44:37;;;;;;;;;;;;;;;24.81;49.93;101150.72;5045659;28;1303;-67
2021/07/14 11:47:35;;;;;;;;;;;;;;;24.81;49.24;101154.22;5046670;28;1129;-67
2021/07/14 11:50:43;;;;;;;;;;;;;;;24.81;49.68;101150.72;5047058;28;1114;-66
2021/07/14 11:53:32;;;;;;;;;;;;;;;24.80;49.70;101151.66;5047340;28;1319;-67
2021/07/14 11:56:26;;;;;;;;;;;;;;;24.80;49.66;101147.19;5045654;28;1068;-67
2021/07/14 11:59:13;;;;;;;;;;;;;;;24.81;49.99;101151.56;5047604;28;1278;-69
2021/07/14 12:02:05;;;;;;;;;;;;;;;24.85;49.59;101144.19;5045422;28;1906;-69
2021/07/14 12:05:09;;;;;;;;;;;;;;;24.84;50.20;101140.69;5047258;28;1328;-69
2021/07/14 12:08:06;;;;;;;;;;;;;;;24.85;50.00;101137.06;5041989;28;1306;-67
2021/07/14 12:10:55;;;;;;;;;;;;;;;24.86;50.03;101143.25;5047228;28;1187;-68
2021/07/14 12:14:01;;;;;;;;;;;;;;;24.88;50.19;101146.63;5048265;28;1345;-68
2021/07/14 12:16:55;;;;;;;;;;;;;;;24.86;49.89;101149.41;5046570;28;1119;-68
2021/07/14 12:19:41;;;;;;;;;;;;;;;24.86;50.62;101140.56;5045468;28;1303;-69
2021/07/14 12:22:28;;;;;;;;;;;;;;;24.94;51.07;101147.00;5047127;28;1979;-67
2021/07/14 12:25:16;;;;;;;;;;;;;;;25.00;50.38;101145.69;5044840;28;1311;-69
2021/07/14 12:28:08;;;;;;;;;;;;;;;25.01;50.41;101136.72;5046091;28;1378;-67
2021/07/14 12:30:53;;;;;;;;;;;;;;;25.01;49.76;101136.72;5041079;28;1168;-69
2021/07/14 12:33:39;;;;;;;;;;;;;;;25.02;49.75;101144.59;5045427;28;1434;-68
2021/07/14 12:36:24;;;;;;;;;;;;;;;25.06;49.92;101144.34;5046193;28;1122;-69
2021/07/14 12:39:09;;;;;;;;;;;;;;;25.04;50.13;101148.97;5045475;28;1319;-68
2021/07/14 12:41:56;;;;;;;;;;;;;;;25.02;50.00;101139.25;5045320;28;1975;-69
2021/07/14 12:44:45;;;;;;;;;;;;;;;25.04;49.71;101128.50;5046253;28;1271;-67
2021/07/14 12:47:31;;;;;;;;;;;;;;;25.02;49.30;101129.59;5046480;28;1586;-67
2021/07/14 12:50:21;;;;;;;;;;;;;;;25.01;49.50;101128.72;5044509;28;1080;-67
2021/07/14 12:53:06;;;;;;;;;;;;;;;25.09;49.34;101134.31;5046058;28;1708;-69
2021/07/14 12:55:57;;;;;;;;;;;;;;;25.17;50.28;101131.06;5044484;28;1242;-69
2021/07/14 12:58:42;;;;;;;;;;;;;;;25.21;49.71;101129.84;5040554;28;1707;-68
2021/07/14 13:01:27;;;;;;;;;;;;;;;25.20;49.80;101130.81;5040947;28;1678;-68
2021/07/14 13:04:15;;;;;;;;;;;;;;;25.22;50.40;101120.88;5045908;28;1291;-69
2021/07/14 13:07:00;;;;;;;;;;;;;;;25.17;50.36;101128.41;5045344;28;1152;-66
2021/07/14 13:09:46;;;;;;;;;;;;;;;25.15;51.51;101122.31;5049865;28;1397;-68
2021/07/14 13:12:32;;;;;;;;;;;;;;;25.12;51.04;101115.41;5053288;28;1150;-65
2021/07/14 13:15:19;;;;;;;;;;;;;;;25.10;51.76;101116.50;5044181;28;1098;-65
2021/07/14 13:18:09;;;;;;;;;;;;;;;25.09;51.78;101110.31;5043181;28;1280;-63
2021/07/14 13:20:55;;;;;;;;;;;;;;;25.09;51.83;101115.66;5052387;28;1118;-67
2021/07/14 13:23:41;;;;;;;;;;;;;;;25.10;51.81;101108.50;5041592;28;1906;-65
2021/07/14 13:26:26;;;;;;;;;;;;;;;25.08;51.58;101121.94;5045275;28;1062;-65
2021/07/14 13:29:23;;;;;;;;;;;;;;;25.09;51.92;101120.13;5043185;28;1655;-65
2021/07/14 13:32:09;;;;;;;;;;;;;;;25.07;51.77;101120.25;5043606;28;1126;-66
2021/07/14 13:34:55;;;;;;;;;;;;;;;25.06;51.88;101121.22;5045300;28;1224;-66
2021/07/14 13:37:40;;;;;;;;;;;;;;;25.06;51.79;101118.56;5043171;28;1027;-67
2021/07/14 13:40:26;;;;;;;;;;;;;;;25.05;52.01;101124.84;5049357;28;1130;-65
2021/07/14 13:43:11;;;;;;;;;;;;;;;25.06;52.03;101126.56;5044117;28;1968;-66
2021/07/14 13:45:56;;;;;;;;;;;;;;;25.07;52.07;101114.06;5045331;28;1256;-66
2021/07/14 13:48:48;;;;;;;;;;;;;;;25.06;51.87;101117.69;5044879;28;1316;-65
2021/07/14 13:51:53;;;;;;;;;;;;;;;25.07;52.01;101119.41;5044107;28;1644;-64
2021/07/14 13:54:42;;;;;;;;;;;;;;;25.05;52.02;101116.84;5042284;28;1631;-67
2021/07/14 13:57:32;;;;;;;;;;;;;;;25.06;52.39;101117.69;5044134;28;1061;-67
2021/07/14 14:00:18;;;;;;;;;;;;;;;25.04;52.48;101115.16;5042650;28;1079;-67
2021/07/14 14:03:04;;;;;;;;;;;;;;;25.08;52.02;101121.94;5038743;28;1906;-68
2021/07/14 14:06:08;;;;;;;;;;;;;;;25.09;51.76;101125.47;5043687;28;1133;-68
2021/07/14 14:08:54;;;;;;;;;;;;;;;25.09;52.43;101122.78;5044031;28;1332;-66
2021/07/14 14:11:39;;;;;;;;;;;;;;;25.10;52.86;101113.84;5041623;28;1099;-70
2021/07/14 14:14:25;;;;;;;;;;;;;;;25.10;52.29;101117.34;5044577;28;1319;-69
2021/07/14 14:17:10;;;;;;;;;;;;;;;25.12;53.30;101114.56;5043935;28;1170;-68
2021/07/14 14:19:55;;;;;;;;;;;;;;;25.16;53.34;101108.03;5044510;28;1347;-70
2021/07/14 14:22:41;;;;;;;;;;;;;;;25.23;51.88;101106.59;5043129;28;1909;-68
2021/07/14 14:25:29;;;;;;;;;;;;;;;25.23;53.56;101104.75;5029565;28;1071;-70
2021/07/14 14:28:15;;;;;;;;;;;;;;;25.18;52.68;101109.59;5047097;28;1338;-70
2021/07/14 14:31:00;;;;;;;;;;;;;;;25.16;52.96;101108.88;5047223;28;1076;-72
2021/07/14 14:33:52;;;;;;;;;;;;;;;25.18;54.11;101122.06;5046271;28;1321;-69
2021/07/14 14:36:37;;;;;;;;;;;;;;;25.16;53.41;101122.22;5050026;28;1003;-68
2021/07/14 14:39:24;;;;;;;;;;;;;;;25.14;53.17;101118.78;5050512;28;1271;-68